createdAt,value
2019-05-09T12:42:03.076Z,24.0066
2019-05-09T12:42:11.380Z,23.9372
2019-05-09T12:42:19.220Z,23.9506
2019-05-09T12:42:28.997Z,23.9372
2019-05-09T12:42:39.298Z,23.9239
2019-05-09T12:42:50.091Z,23.9372
2019-05-09T12:42:58.142Z,23.8945
2019-05-09T12:43:28.299Z,23.8384
2019-05-09T12:43:38.193Z,23.7957
2019-05-09T12:43:46.148Z,23.7957
2019-05-09T12:43:54.233Z,23.7957
2019-05-09T12:44:02.188Z,23.7690
2019-05-09T12:44:10.162Z,23.7690
2019-05-09T12:44:18.581Z,23.7690
2019-05-09T12:44:28.638Z,23.7957
2019-05-09T12:44:36.238Z,23.8251
2019-05-09T12:44:44.167Z,23.7957
2019-05-09T12:44:52.176Z,23.7957
2019-05-09T12:45:00.170Z,23.7957
2019-05-09T12:45:08.416Z,23.7957
2019-05-09T12:45:17.989Z,23.8117
2019-05-09T12:45:26.173Z,23.8251
2019-05-09T12:45:34.172Z,23.8811
2019-05-09T12:45:42.215Z,23.9666
2019-05-09T12:45:50.154Z,24.0066
2019-05-09T12:45:58.156Z,24.0227
2019-05-09T12:46:08.639Z,24.0494
2019-05-09T12:46:16.161Z,24.0227
2019-05-09T12:46:24.188Z,24.1081
2019-05-09T12:46:32.243Z,24.1802
2019-05-09T12:46:40.175Z,24.1642
2019-05-09T12:46:48.996Z,24.2363
2019-05-09T12:46:58.112Z,24.3191
2019-05-09T12:47:06.331Z,24.4900
2019-05-09T12:47:14.165Z,24.7597
2019-05-09T12:47:22.147Z,24.7597
2019-05-09T12:47:30.156Z,24.8852
2019-05-09T12:47:39.781Z,24.8291
2019-05-09T12:47:48.175Z,24.7303
2019-05-09T12:48:10.159Z,24.7730
2019-05-09T12:48:19.486Z,24.7597
2019-05-09T12:48:27.882Z,28.8933
2019-05-09T12:48:36.147Z,25.9346
2019-05-09T12:48:44.157Z,25.5661
2019-05-09T12:48:52.221Z,25.2831
2019-05-09T12:49:00.197Z,25.1015
2019-05-09T12:49:08.982Z,25.0267
2019-05-09T12:49:25.166Z,25.1575
2019-05-09T12:49:33.164Z,25.2697
2019-05-09T12:49:41.160Z,25.3525
2019-05-09T12:53:48.888Z,24.7303
2019-05-09T12:53:58.304Z,25.2136
2019-05-09T12:54:08.398Z,25.4112
2019-05-09T12:54:18.771Z,25.2136
2019-05-09T12:54:27.923Z,25.1842
2019-05-09T12:54:38.493Z,25.1415
2019-05-09T12:54:48.350Z,25.0854
2019-05-09T12:54:58.291Z,25.4940
2019-05-09T12:55:08.194Z,25.2270
2019-05-09T12:55:17.858Z,25.0401
2019-05-09T12:55:27.602Z,24.9279
2019-05-09T12:55:35.462Z,24.6902
2019-05-09T12:55:43.452Z,24.6181
2019-05-09T12:55:51.482Z,24.5594
2019-05-09T12:55:59.481Z,24.4045
2019-05-09T12:56:08.194Z,24.3778
2019-05-09T12:56:18.727Z,24.4472
2019-05-09T12:56:28.565Z,24.4179
2019-05-09T12:56:38.494Z,24.4045
2019-05-09T12:56:48.510Z,24.3057
2019-05-09T12:56:59.191Z,24.2924
2019-05-09T12:57:08.077Z,24.2924
2019-05-09T12:57:19.168Z,24.2496
2019-05-09T12:57:28.867Z,24.2924
2019-05-09T12:57:38.688Z,24.2790
2019-05-09T12:57:48.865Z,24.2069
2019-05-09T12:57:59.479Z,24.1936
2019-05-09T12:58:09.747Z,24.1375
2019-05-09T12:58:17.845Z,24.1241
2019-05-09T12:58:27.662Z,24.1375
2019-05-09T12:58:35.474Z,24.0814
2019-05-09T12:58:43.501Z,24.1241
2019-05-09T12:58:51.535Z,24.1081
2019-05-09T12:58:59.470Z,24.1375
2019-05-09T12:59:08.796Z,24.0814
2019-05-09T12:59:18.754Z,24.1241
2019-05-09T12:59:28.694Z,24.1241
2019-05-09T12:59:48.162Z,24.1375
2019-05-09T12:59:52.969Z,24.4339
2019-05-09T13:00:01.474Z,24.6475
2019-05-09T13:00:09.457Z,24.6475
2019-05-09T13:00:18.724Z,24.6048
2019-05-09T13:00:28.389Z,24.7169
2019-05-09T13:00:38.450Z,24.8291
2019-05-09T13:00:49.240Z,24.6048
2019-05-09T13:01:00.778Z,24.3057
2019-05-09T13:01:08.529Z,24.3057
2019-05-09T13:05:38.885Z,18.5725
2019-05-09T13:09:11.475Z,23.2723
2019-05-09T13:09:19.268Z,23.3150
2019-05-09T13:09:28.622Z,23.3577
2019-05-09T13:09:36.191Z,23.4005
2019-05-09T13:09:44.204Z,23.4699
2019-05-09T13:11:13.752Z,24.3191
2019-05-09T13:11:21.232Z,24.4179
2019-05-09T13:13:41.536Z,25.2403
2019-05-09T13:13:49.255Z,24.9279
2019-05-09T13:13:57.200Z,24.7036
2019-05-09T13:14:05.198Z,24.5754
2019-05-09T13:14:13.262Z,24.4900
2019-05-09T13:15:23.603Z,24.3778
2019-05-09T13:15:23.603Z,24.5033
2019-05-09T13:19:58.472Z,18.7728
2019-05-09T13:20:07.937Z,18.3349
2019-05-09T13:20:30.954Z,18.0385
2019-05-09T13:22:18.519Z,17.1599
2019-05-09T13:22:18.519Z,17.8943
2019-05-09T13:22:28.346Z,18.3188
2019-05-09T13:22:37.412Z,19.0826
2019-05-09T13:22:47.684Z,19.2374
2019-05-09T13:22:58.850Z,19.4511
2019-05-09T13:23:14.488Z,19.5071
2019-05-09T13:23:31.889Z,20.3697
2019-05-09T13:23:40.541Z,21.3764
